createdAt,value
2023-05-25T00:00:29.188Z,66.49
2023-05-25T00:03:20.489Z,66.91
2023-05-25T00:06:10.638Z,66.76
2023-05-25T00:09:00.140Z,66.60
2023-05-25T00:11:49.706Z,66.71
2023-05-25T00:14:40.415Z,66.68
2023-05-25T00:17:32.351Z,66.73
2023-05-25T00:20:21.858Z,66.68
2023-05-25T00:23:11.551Z,66.39
2023-05-25T00:26:01.031Z,66.70
2023-05-25T00:28:50.327Z,66.98
2023-05-25T00:31:41.170Z,66.44
2023-05-25T00:34:30.764Z,66.26
2023-05-25T00:37:20.100Z,66.43
2023-05-25T00:40:13.964Z,66.45
2023-05-25T00:43:03.643Z,66.29
2023-05-25T00:45:53.198Z,66.33
2023-05-25T00:48:44.038Z,66.02
2023-05-25T00:51:34.148Z,66.13
2023-05-25T00:54:23.969Z,65.90
2023-05-25T00:57:52.430Z,66.12
2023-05-25T01:00:44.002Z,66.02
2023-05-25T01:03:38.095Z,66.28
2023-05-25T01:06:34.141Z,66.18
2023-05-25T01:09:26.079Z,66.09
2023-05-25T01:12:18.809Z,65.98
2023-05-25T01:15:39.414Z,66.07
2023-05-25T01:18:28.876Z,65.92
2023-05-25T01:21:27.249Z,65.66
2023-05-25T01:24:25.993Z,65.73
2023-05-25T01:27:23.823Z,65.49
2023-05-25T01:30:20.699Z,65.76
2023-05-25T01:33:11.838Z,65.52
2023-05-25T01:36:02.679Z,66.11
2023-05-25T01:38:53.730Z,65.73
2023-05-25T01:41:43.097Z,66.08
2023-05-25T01:44:32.672Z,65.96
2023-05-25T01:47:34.076Z,66.23
2023-05-25T01:50:31.517Z,66.80
2023-05-25T01:53:24.364Z,67.01
2023-05-25T01:56:17.324Z,66.67
2023-05-25T01:59:10.801Z,67.14
2023-05-25T02:02:02.156Z,67.67
2023-05-25T02:04:51.813Z,67.84
2023-05-25T02:07:41.507Z,67.87
2023-05-25T02:10:30.980Z,67.85
2023-05-25T02:13:21.953Z,67.90
2023-05-25T02:16:11.498Z,67.84
2023-05-25T02:19:05.819Z,67.99
2023-05-25T02:21:55.123Z,68.16
2023-05-25T02:24:46.693Z,68.40
2023-05-25T02:27:36.301Z,68.40
2023-05-25T02:30:26.977Z,68.92
2023-05-25T02:33:20.378Z,68.79
2023-05-25T02:36:11.305Z,68.82
2023-05-25T02:39:00.716Z,68.93
2023-05-25T02:41:50.918Z,69.51
2023-05-25T02:44:42.252Z,69.19
2023-05-25T02:47:33.132Z,69.84
2023-05-25T02:50:22.540Z,69.43
2023-05-25T02:53:15.091Z,70.82
2023-05-25T02:56:05.116Z,70.32
2023-05-25T02:58:57.124Z,70.80
2023-05-25T03:01:53.808Z,70.15
2023-05-25T03:04:46.056Z,69.96
2023-05-25T03:07:35.949Z,69.43
2023-05-25T03:10:25.279Z,69.33
2023-05-25T03:13:15.414Z,69.55
2023-05-25T03:16:05.322Z,70.16
2023-05-25T03:18:54.903Z,70.53
2023-05-25T03:21:47.050Z,70.65
2023-05-25T03:24:36.503Z,70.42
2023-05-25T03:27:26.636Z,70.23
2023-05-25T03:30:16.482Z,70.01
2023-05-25T03:33:06.036Z,69.60
2023-05-25T03:36:02.328Z,69.83
2023-05-25T03:38:53.011Z,69.57
2023-05-25T03:41:44.293Z,70.03
2023-05-25T03:44:34.242Z,70.47
2023-05-25T03:47:23.664Z,70.47
2023-05-25T03:50:13.781Z,70.24
2023-05-25T03:53:04.457Z,70.53
2023-05-25T03:55:55.180Z,70.52
2023-05-25T03:58:44.533Z,70.36
2023-05-25T04:01:38.252Z,70.43
2023-05-25T04:04:28.327Z,70.43
2023-05-25T04:07:17.753Z,70.24
2023-05-25T04:10:09.149Z,70.45
2023-05-25T04:12:59.993Z,71.36
2023-05-25T04:15:49.488Z,71.91
2023-05-25T04:18:44.557Z,72.28
2023-05-25T04:21:33.953Z,71.66
2023-05-25T04:24:23.917Z,71.13
2023-05-25T04:27:14.406Z,71.26
2023-05-25T04:30:06.645Z,71.44
2023-05-25T04:33:18.001Z,71.24
2023-05-25T04:36:34.356Z,71.60
2023-05-25T04:39:26.850Z,71.77
2023-05-25T04:42:19.509Z,71.41
2023-05-25T04:45:11.997Z,71.98
2023-05-25T04:48:01.878Z,71.73
2023-05-25T04:50:53.747Z,72.02
2023-05-25T04:53:43.583Z,71.85
2023-05-25T04:56:34.295Z,71.72
2023-05-25T04:59:23.784Z,71.62
2023-05-25T05:02:14.628Z,71.92
2023-05-25T05:05:07.253Z,71.87
2023-05-25T05:07:56.635Z,71.51
2023-05-25T05:10:47.796Z,71.58
2023-05-25T05:13:37.409Z,72.25
2023-05-25T05:16:27.106Z,72.04
2023-05-25T05:19:19.655Z,71.92
2023-05-25T05:22:10.066Z,72.29
2023-05-25T05:25:01.210Z,71.99
2023-05-25T05:27:53.709Z,71.56
2023-05-25T05:30:48.886Z,71.53
2023-05-25T05:33:40.877Z,71.38
2023-05-25T05:36:42.104Z,71.30
2023-05-25T05:39:45.700Z,71.42
2023-05-25T05:42:40.245Z,71.40
2023-05-25T05:45:30.987Z,71.32
2023-05-25T05:48:20.555Z,71.71
2023-05-25T05:51:09.998Z,71.49
2023-05-25T05:54:01.507Z,71.69
2023-05-25T05:56:52.715Z,71.41
2023-05-25T05:59:42.190Z,71.38
2023-05-25T06:02:31.880Z,71.07
2023-05-25T06:05:22.053Z,71.33
2023-05-25T06:08:11.994Z,70.77
2023-05-25T06:11:03.013Z,70.45
2023-05-25T06:13:52.975Z,70.31
2023-05-25T06:16:43.931Z,70.91
2023-05-25T06:19:33.429Z,70.27
2023-05-25T06:22:27.334Z,70.29
2023-05-25T06:25:17.121Z,70.24
2023-05-25T06:28:08.660Z,69.58
2023-05-25T06:30:58.262Z,69.98
2023-05-25T06:33:47.947Z,69.94
2023-05-25T06:36:37.464Z,69.67
2023-05-25T06:39:26.992Z,69.62
2023-05-25T06:42:16.771Z,69.14
2023-05-25T06:45:16.793Z,69.14
2023-05-25T06:48:06.698Z,69.07
2023-05-25T06:50:56.159Z,68.26
2023-05-25T06:53:45.889Z,68.68
2023-05-25T06:56:36.034Z,67.90
2023-05-25T06:59:25.486Z,67.48
2023-05-25T07:02:16.518Z,68.19
2023-05-25T07:05:10.689Z,67.81
2023-05-25T07:08:00.238Z,67.05
2023-05-25T07:10:50.477Z,66.53
2023-05-25T07:13:40.001Z,65.63
2023-05-25T07:16:29.525Z,65.53
2023-05-25T07:19:20.383Z,65.70
2023-05-25T07:22:10.131Z,65.71
2023-05-25T07:24:59.486Z,65.83
2023-05-25T07:27:53.676Z,65.20
2023-05-25T07:30:47.545Z,64.55
2023-05-25T07:33:37.196Z,63.96
2023-05-25T07:36:27.994Z,63.89
2023-05-25T07:39:17.948Z,61.08
2023-05-25T07:42:07.832Z,60.09
2023-05-25T07:45:00.432Z,61.03
2023-05-25T07:47:50.296Z,59.76
2023-05-25T07:50:39.737Z,59.16
2023-05-25T07:53:30.574Z,58.79
2023-05-25T07:56:20.007Z,57.70
2023-05-25T07:59:10.175Z,53.61
2023-05-25T08:02:05.347Z,53.30
2023-05-25T08:05:00.017Z,53.64
2023-05-25T08:07:52.616Z,53.05
2023-05-25T08:10:43.757Z,50.01
2023-05-25T08:13:33.115Z,52.53
2023-05-25T08:16:22.649Z,48.63
2023-05-25T08:19:11.997Z,47.19
2023-05-25T08:22:02.003Z,47.93
2023-05-25T08:24:51.703Z,45.53
2023-05-25T08:27:45.217Z,44.25
2023-05-25T08:30:36.296Z,44.40
2023-05-25T08:33:26.198Z,41.88
2023-05-25T08:36:18.724Z,40.89
2023-05-25T08:39:19.472Z,41.02
2023-05-25T08:42:13.546Z,40.08
2023-05-25T08:45:47.334Z,39.28
2023-05-25T08:48:40.926Z,38.22
2023-05-25T08:51:39.790Z,39.04
2023-05-25T08:54:36.678Z,37.31
2023-05-25T08:57:31.611Z,38.49
2023-05-25T09:00:28.050Z,37.00
2023-05-25T09:03:19.193Z,37.28
2023-05-25T09:06:09.497Z,37.06
2023-05-25T09:08:59.384Z,36.55
2023-05-25T09:11:50.361Z,36.64
2023-05-25T09:14:45.756Z,36.69
2023-05-25T09:17:38.211Z,34.92
2023-05-25T09:20:32.110Z,35.01
2023-05-25T09:23:28.161Z,35.09
2023-05-25T09:26:17.640Z,35.63
2023-05-25T09:29:06.957Z,35.04
2023-05-25T09:31:57.508Z,33.75
2023-05-25T09:34:48.829Z,33.34
2023-05-25T09:37:39.104Z,33.13
2023-05-25T09:40:28.525Z,32.81
2023-05-25T09:43:39.189Z,30.87
2023-05-25T09:46:32.804Z,31.27
2023-05-25T09:49:23.107Z,31.19
2023-05-25T09:52:16.940Z,31.89
2023-05-25T09:55:13.496Z,31.69
2023-05-25T09:58:03.351Z,29.50
2023-05-25T10:00:55.848Z,28.35
2023-05-25T10:03:59.508Z,28.65
2023-05-25T10:06:56.911Z,29.06
2023-05-25T10:09:48.854Z,29.74
2023-05-25T10:12:40.242Z,30.07
2023-05-25T10:15:30.546Z,29.05
2023-05-25T10:18:25.875Z,29.38
2023-05-25T10:21:17.461Z,28.72
2023-05-25T10:24:14.728Z,28.18
2023-05-25T10:27:27.008Z,27.17
2023-05-25T10:30:17.595Z,28.13
2023-05-25T10:33:07.527Z,28.21
2023-05-25T10:36:09.089Z,27.99
2023-05-25T10:39:02.032Z,27.90
2023-05-25T10:41:53.410Z,27.58
2023-05-25T10:44:45.795Z,28.11
2023-05-25T10:47:36.975Z,28.06
2023-05-25T10:50:28.774Z,27.75
2023-05-25T10:53:20.948Z,27.62
2023-05-25T10:56:12.329Z,27.52
2023-05-25T10:59:02.234Z,26.56
2023-05-25T11:01:53.439Z,24.70
2023-05-25T11:04:42.787Z,25.18
2023-05-25T11:07:32.684Z,24.45
2023-05-25T11:10:53.452Z,23.63
2023-05-25T11:13:46.675Z,23.64
2023-05-25T11:16:36.354Z,23.73
2023-05-25T11:19:40.246Z,23.61
2023-05-25T11:22:35.470Z,23.36
2023-05-25T11:25:45.228Z,23.32
2023-05-25T11:28:34.947Z,22.35
2023-05-25T11:31:37.559Z,21.34
2023-05-25T11:34:33.339Z,22.07
2023-05-25T11:37:25.247Z,22.66
2023-05-25T11:40:15.403Z,22.64
2023-05-25T11:43:05.988Z,22.46
2023-05-25T11:45:58.007Z,22.65
2023-05-25T11:48:52.982Z,22.97
2023-05-25T11:51:44.813Z,21.69
2023-05-25T11:54:35.105Z,22.38
2023-05-25T11:57:26.196Z,22.52
2023-05-25T12:00:28.427Z,22.56
2023-05-25T12:03:32.433Z,22.69
2023-05-25T12:06:30.078Z,22.58
2023-05-25T12:09:23.244Z,22.82
2023-05-25T12:12:13.297Z,22.50
2023-05-25T12:15:02.601Z,21.33
2023-05-25T12:17:54.007Z,21.80
2023-05-25T12:20:43.743Z,21.76
2023-05-25T12:23:33.307Z,21.87
2023-05-25T12:26:24.016Z,21.59
2023-05-25T12:29:13.505Z,21.37
2023-05-25T12:32:07.080Z,20.85
2023-05-25T12:35:05.722Z,21.34
2023-05-25T12:38:13.224Z,20.55
2023-05-25T12:41:29.393Z,20.94
2023-05-25T12:44:36.107Z,21.32
2023-05-25T12:47:30.526Z,21.45
2023-05-25T12:50:23.078Z,21.70
2023-05-25T12:53:12.447Z,21.75
2023-05-25T12:56:07.149Z,23.75
2023-05-25T12:58:58.041Z,24.48
2023-05-25T13:01:48.689Z,24.61
2023-05-25T13:04:45.622Z,24.42
2023-05-25T13:07:34.934Z,24.84
2023-05-25T13:10:26.098Z,25.25
2023-05-25T13:13:16.050Z,25.36
2023-05-25T13:16:07.711Z,25.29
2023-05-25T13:18:57.561Z,25.61
2023-05-25T13:21:49.302Z,25.43
2023-05-25T13:24:39.093Z,25.87
2023-05-25T13:27:31.072Z,26.03
2023-05-25T13:30:22.290Z,25.98
2023-05-25T13:33:18.097Z,26.24
2023-05-25T13:36:09.145Z,26.94
2023-05-25T13:39:05.421Z,27.25
2023-05-25T13:41:54.988Z,27.26
2023-05-25T13:44:44.322Z,27.06
2023-05-25T13:47:33.667Z,27.06
2023-05-25T13:50:24.712Z,26.91
2023-05-25T13:53:14.783Z,27.34
2023-05-25T13:56:04.054Z,27.41
2023-05-25T13:58:54.095Z,27.57
2023-05-25T14:01:43.439Z,27.81
2023-05-25T14:04:32.818Z,27.95
2023-05-25T14:07:23.974Z,28.35
2023-05-25T14:10:13.431Z,28.36
2023-05-25T14:13:02.877Z,28.39
2023-05-25T14:15:53.177Z,28.22
2023-05-25T14:18:42.582Z,28.13
2023-05-25T14:21:33.329Z,28.07
2023-05-25T14:24:24.146Z,28.21
2023-05-25T14:27:16.190Z,28.13
2023-05-25T14:30:07.450Z,28.39
2023-05-25T14:32:56.829Z,28.41
2023-05-25T14:35:46.517Z,28.56
2023-05-25T14:38:38.882Z,28.67
2023-05-25T14:41:29.826Z,28.69
2023-05-25T14:44:22.406Z,28.78
2023-05-25T14:47:11.825Z,28.86
2023-05-25T14:50:01.476Z,29.13
2023-05-25T14:52:51.073Z,29.10
2023-05-25T14:55:41.132Z,29.12
2023-05-25T14:58:32.888Z,29.10
2023-05-25T15:01:25.032Z,29.12
2023-05-25T15:04:14.953Z,29.54
2023-05-25T15:07:04.466Z,30.37
2023-05-25T15:09:53.771Z,30.72
2023-05-25T15:12:43.101Z,31.28
2023-05-25T15:15:33.915Z,31.23
2023-05-25T15:18:23.423Z,31.25
2023-05-25T15:21:13.006Z,31.41
2023-05-25T15:24:02.363Z,31.01
2023-05-25T15:26:51.693Z,30.92
2023-05-25T15:29:41.072Z,30.88
2023-05-25T15:32:31.887Z,30.68
2023-05-25T15:35:21.371Z,30.66
2023-05-25T15:38:10.844Z,30.59
2023-05-25T15:41:00.132Z,31.19
2023-05-25T15:44:01.174Z,31.03
2023-05-25T15:46:56.433Z,32.08
2023-05-25T15:49:47.396Z,32.60
2023-05-25T15:52:44.494Z,32.72
2023-05-25T15:55:41.654Z,32.92
2023-05-25T15:58:36.622Z,33.13
2023-05-25T16:01:28.459Z,33.70
2023-05-25T16:04:22.068Z,34.09
2023-05-25T16:07:14.276Z,34.59
2023-05-25T16:10:03.708Z,35.05
2023-05-25T16:12:53.338Z,35.42
2023-05-25T16:15:45.833Z,35.68
2023-05-25T16:18:38.507Z,36.00
2023-05-25T16:21:28.091Z,36.23
2023-05-25T16:24:18.962Z,36.62
2023-05-25T16:27:09.479Z,36.66
2023-05-25T16:29:58.819Z,36.99
2023-05-25T16:32:50.776Z,37.43
2023-05-25T16:35:40.464Z,37.52
2023-05-25T16:38:32.309Z,37.75
2023-05-25T16:41:26.470Z,37.99
2023-05-25T16:44:23.128Z,38.34
2023-05-25T16:47:22.786Z,38.18
2023-05-25T16:50:17.581Z,38.31
2023-05-25T16:53:10.186Z,38.68
2023-05-25T16:55:59.811Z,38.94
2023-05-25T16:58:53.399Z,38.81
2023-05-25T17:01:47.279Z,38.74
2023-05-25T17:04:39.102Z,38.93
2023-05-25T17:07:28.972Z,38.90
2023-05-25T17:10:18.577Z,38.89
2023-05-25T17:13:07.974Z,39.22
2023-05-25T17:15:59.323Z,39.29
2023-05-25T17:18:49.007Z,39.36
2023-05-25T17:21:38.620Z,40.00
2023-05-25T17:24:28.035Z,40.52
2023-05-25T17:27:17.558Z,40.53
2023-05-25T17:30:08.835Z,41.07
2023-05-25T17:33:01.867Z,41.53
2023-05-25T17:35:51.306Z,41.54
2023-05-25T17:38:41.345Z,41.73
2023-05-25T17:41:30.950Z,41.88
2023-05-25T17:44:21.150Z,42.20
2023-05-25T17:47:11.322Z,42.52
2023-05-25T17:50:02.518Z,42.83
2023-05-25T17:52:51.948Z,42.51
2023-05-25T17:55:41.578Z,42.79
2023-05-25T17:58:31.095Z,42.94
2023-05-25T18:01:20.684Z,43.05
2023-05-25T18:04:10.323Z,43.29
2023-05-25T18:07:01.189Z,43.31
2023-05-25T18:09:50.614Z,43.39
2023-05-25T18:12:40.032Z,43.46
2023-05-25T18:15:29.596Z,43.70
2023-05-25T18:18:20.904Z,43.57
2023-05-25T18:21:10.150Z,44.02
2023-05-25T18:24:00.854Z,44.78
2023-05-25T18:26:50.311Z,44.75
2023-05-25T18:29:39.747Z,45.73
2023-05-25T18:32:29.191Z,46.26
2023-05-25T18:35:18.560Z,46.33
2023-05-25T18:38:07.920Z,46.63
2023-05-25T18:40:58.741Z,46.52
2023-05-25T18:43:49.298Z,46.86
2023-05-25T18:46:41.268Z,46.83
2023-05-25T18:49:34.626Z,47.10
2023-05-25T18:52:24.123Z,46.87
2023-05-25T18:55:13.626Z,47.17
2023-05-25T18:58:04.823Z,47.42
2023-05-25T19:00:54.232Z,47.61
2023-05-25T19:03:43.747Z,47.99
2023-05-25T19:06:33.667Z,47.74
2023-05-25T19:09:23.207Z,47.83
2023-05-25T19:12:12.653Z,47.70
2023-05-25T19:15:03.484Z,47.72
2023-05-25T19:17:53.783Z,47.60
2023-05-25T19:20:46.127Z,47.61
2023-05-25T19:23:36.166Z,47.86
2023-05-25T19:26:25.827Z,47.74
2023-05-25T19:29:15.619Z,47.74
2023-05-25T19:32:07.124Z,48.17
2023-05-25T19:34:56.649Z,48.30
2023-05-25T19:37:46.112Z,48.41
2023-05-25T19:40:35.665Z,48.37
2023-05-25T19:43:25.143Z,48.45
2023-05-25T19:46:14.515Z,48.67
2023-05-25T19:49:05.341Z,48.64
2023-05-25T19:51:54.748Z,48.59
2023-05-25T19:54:44.495Z,48.89
2023-05-25T19:57:33.772Z,48.76
2023-05-25T20:00:26.833Z,48.84
2023-05-25T20:03:18.444Z,48.74
2023-05-25T20:06:09.351Z,48.67
2023-05-25T20:08:58.809Z,49.27
2023-05-25T20:11:48.131Z,49.42
2023-05-25T20:14:37.487Z,49.53
2023-05-25T20:17:26.889Z,50.05
2023-05-25T20:20:16.450Z,49.76
2023-05-25T20:23:07.265Z,50.16
2023-05-25T20:25:56.880Z,50.18
2023-05-25T20:28:46.280Z,49.95
2023-05-25T20:31:35.875Z,50.11
2023-05-25T20:34:25.490Z,49.68
2023-05-25T20:37:15.007Z,49.85
2023-05-25T20:40:06.879Z,49.79
2023-05-25T20:42:57.355Z,49.49
2023-05-25T20:45:47.142Z,49.29
2023-05-25T20:48:37.544Z,48.89
2023-05-25T20:51:26.983Z,48.88
2023-05-25T20:54:16.486Z,48.81
2023-05-25T20:57:07.863Z,48.48
2023-05-25T21:00:00.025Z,48.82
2023-05-25T21:02:49.619Z,48.76
2023-05-25T21:05:39.181Z,49.18
2023-05-25T21:08:28.894Z,49.18
2023-05-25T21:11:18.477Z,49.26
2023-05-25T21:14:09.452Z,49.54
2023-05-25T21:16:58.901Z,49.37
2023-05-25T21:19:49.225Z,49.55
2023-05-25T21:22:38.892Z,49.53
2023-05-25T21:25:28.425Z,49.47
2023-05-25T21:28:17.806Z,49.64
2023-05-25T21:31:08.886Z,49.66
2023-05-25T21:34:00.028Z,49.74
2023-05-25T21:36:50.271Z,49.70
2023-05-25T21:39:39.783Z,49.88
2023-05-25T21:42:29.216Z,49.88
2023-05-25T21:45:18.587Z,49.75
2023-05-25T21:48:09.505Z,49.79
2023-05-25T21:50:58.889Z,49.75
2023-05-25T21:53:48.282Z,49.79
2023-05-25T21:56:37.648Z,50.03
2023-05-25T21:59:27.205Z,50.35
2023-05-25T22:02:16.896Z,49.98
2023-05-25T22:05:08.512Z,50.03
2023-05-25T22:07:57.883Z,50.04
2023-05-25T22:10:47.200Z,50.10
2023-05-25T22:13:36.628Z,50.50
2023-05-25T22:16:26.373Z,50.44
2023-05-25T22:19:15.773Z,50.72
2023-05-25T22:22:07.168Z,50.58
2023-05-25T22:24:56.785Z,51.03
2023-05-25T22:27:46.270Z,51.81
2023-05-25T22:30:36.317Z,52.84
2023-05-25T22:33:25.879Z,53.68
2023-05-25T22:36:16.474Z,53.86
2023-05-25T22:39:07.466Z,54.07
2023-05-25T22:41:56.930Z,54.85
2023-05-25T22:44:49.430Z,54.75
2023-05-25T22:47:38.774Z,55.40
2023-05-25T22:50:28.266Z,55.59
2023-05-25T22:53:17.680Z,56.47
2023-05-25T22:56:09.062Z,58.19
2023-05-25T22:58:58.449Z,58.26
2023-05-25T23:01:48.211Z,58.85
2023-05-25T23:04:37.990Z,59.47
2023-05-25T23:07:27.298Z,59.76
2023-05-25T23:10:18.930Z,59.89
2023-05-25T23:13:09.652Z,60.15
2023-05-25T23:15:59.712Z,60.47
2023-05-25T23:18:49.275Z,60.91
2023-05-25T23:21:38.732Z,61.21
2023-05-25T23:24:28.050Z,60.94
2023-05-25T23:27:17.546Z,61.05
2023-05-25T23:30:09.744Z,62.00
2023-05-25T23:33:00.232Z,62.06
2023-05-25T23:35:51.620Z,62.64
2023-05-25T23:38:41.218Z,62.18
2023-05-25T23:41:30.575Z,62.50
2023-05-25T23:44:20.538Z,62.82
2023-05-25T23:47:11.376Z,62.81
2023-05-25T23:50:00.990Z,62.77
2023-05-25T23:52:50.753Z,62.96
2023-05-25T23:55:44.387Z,63.01
2023-05-25T23:58:34.001Z,63.15
